Portada
METAR-TAF:

METAR-TAF

Aeroports :

Munda, New Georgia, Illes Salomó

latitud: 8-19-41S, longitud: 157-15-47E, altitud: 3 m

Observació

L'informe es va fer fa 2 hores i 12 minuts, a les 00:00 UTC
Vent 5 kt del Est
Temperatura 30°C
Humitat 70%
Pressió 1007 hPa
Visibilitat 10 km o més
Escasses núvols a una alçada de 1800 ft

METAR: AGGM 290000Z 09005KT 9999 FEW018 30/24 Q1007

Hora: 13:12 (02:12 UTC)

Pronòstic

L'informe es va fer fa 3 hores i 2 minuts, a les 23:10 UTC
Pronòstic vàlid del 29 a les 00 UTC al 29 a les 24 UTC
Vent 8 kt del Nord-Est
Visibilitat 10 km o més
Escasses núvols a una alçada de 1800 ft
Núvols disperses a una alçada de 2800 ft
Probabilitat 40%
entre IN i TE UTC
Visibilitat: 1006 m
Cel ennuvolat a una alçada de 1600 ft
Escasses núvols a una alçada de 1700 ft, Cumulonimbus.

TAF: AGGM 282310Z 2900/2924 05008KT 9999 FEW018 SCT028 PROB40 INTER 2900/2906 2000 TSSH BKN016 FEW017CB Q 1007 1005 1004 1006

Observacions i pronòstics meteorològics de més de 4000 aeroports (METAR i TAF).

Les estacions disponibles són els punts grocs i vermells al mapa.

Posi el ratolí al punt desitjat per veure el nom de l'estació.

Feu clic per veure les observacions i els pronòstics meteorològics.

Per canviar el mapa: feu clic els botons verds amb una creu de color negre per apropar; al botó verd amb un guió per allunyar la imatge; o en les fletxes verdes per a mapes adjacents.


METAR-TAF: